Time;durP1;ratioP1;P1;durP2;ratioP2;P2;SDS_P1;SDS_P2;PMS_P1;PMS_P2;Temp;Humidity;BMP_temperature;BMP_pressure;BME280_temperature;BME280_humidity;BME280_pressure;Samples;Min_cycle;Max_cycle;Signal;HPM_P1;HPM_P2
2023/12/31 00:00:32;;;;;;;;;6.00;4.00;;;;;-144.24;100.00;110440.66;5039350;28;45497;-68
2023/12/31 00:02:58;;;;;;;;;6.67;5.67;;;;;-144.24;100.00;110493.56;5039646;28;45432;-67
2023/12/31 00:05:23;;;;;;;;;4.33;4.00;;;;;-144.24;100.00;110465.06;5039421;28;45540;-68
2023/12/31 00:07:48;;;;;;;;;4.00;4.00;;;;;-144.24;100.00;110395.88;5020799;28;68724;-69
2023/12/31 00:10:13;;;;;;;;;4.67;4.67;;;;;-144.24;100.00;110487.47;5038047;28;71481;-68
2023/12/31 00:12:39;;;;;;;;;5.67;5.00;;;;;-144.24;100.00;110324.63;5039312;28;45445;-68
2023/12/31 00:15:04;;;;;;;;;5.00;3.00;;;;;-144.24;100.00;110465.06;5038809;28;45378;-68
2023/12/31 00:17:30;;;;;;;;;8.67;4.67;;;;;-144.24;100.00;110536.31;5039187;28;45390;-68
2023/12/31 00:19:55;;;;;;;;;5.67;4.00;;;;;-144.24;100.00;110442.69;5038128;28;56240;-69
2023/12/31 00:22:21;;;;;;;;;6.33;4.33;;;;;-144.24;100.00;110385.69;5021394;28;45518;-67
2023/12/31 00:24:46;;;;;;;;;3.33;3.33;;;;;-144.24;100.00;110342.94;5038263;28;49265;-67
2023/12/31 00:27:11;;;;;;;;;4.00;2.67;;;;;-144.24;100.00;110489.50;5038935;28;48804;-68
2023/12/31 00:29:37;;;;;;;;;4.00;4.00;;;;;-144.24;100.00;110316.50;5039057;28;45322;-69
2023/12/31 00:32:02;;;;;;;;;3.00;3.00;;;;;-144.24;100.00;110294.09;5038293;28;56756;-69
2023/12/31 00:34:27;;;;;;;;;4.00;4.00;;;;;-144.24;100.00;110180.13;5038793;28;45484;-68
2023/12/31 00:36:53;;;;;;;;;3.00;3.00;;;;;-144.24;100.00;110245.25;5037608;28;68529;-68
2023/12/31 00:39:18;;;;;;;;;0.00;0.00;;;;;-144.24;100.00;110251.38;5037773;28;72237;-68
2023/12/31 00:41:43;;;;;;;;;3.00;3.00;;;;;-144.24;100.00;110212.69;5038817;28;45542;-68
2023/12/31 00:44:09;;;;;;;;;5.00;4.00;;;;;-144.24;100.00;109984.75;5037300;28;68418;-68
2023/12/31 00:46:34;;;;;;;;;4.00;4.00;;;;;-144.24;100.00;110011.22;5033514;28;73289;-67
2023/12/31 00:48:59;;;;;;;;;8.00;5.33;;;;;-144.24;100.00;109980.69;5038106;28;45476;-68
2023/12/31 00:51:25;;;;;;;;;4.00;2.00;;;;;-144.24;100.00;109919.63;5019370;28;63364;-68
2023/12/31 00:53:50;;;;;;;;;5.00;5.00;;;;;-144.24;100.00;109813.81;5038488;28;45537;-68
2023/12/31 00:56:16;;;;;;;;;3.67;3.67;;;;;-144.24;100.00;109801.59;5037415;28;70891;-68
2023/12/31 00:58:42;;;;;;;;;4.00;4.00;;;;;-144.24;100.00;109823.97;5037010;28;55218;-67
2023/12/31 01:01:08;;;;;;;;;1.67;1.67;;;;;-144.24;100.00;109667.28;5038227;28;45368;-68
2023/12/31 01:03:33;;;;;;;;;5.00;3.33;;;;;-144.24;100.00;109703.91;5039541;28;45492;-69
2023/12/31 01:06:05;;;;;;;;;3.00;3.00;;;;;-144.24;100.00;109648.97;5037711;28;54895;-68
2023/12/31 01:08:31;;;;;;;;;3.33;3.33;;;;;-144.24;100.00;109526.88;5038036;28;45482;-69
2023/12/31 01:10:56;;;;;;;;;7.33;4.00;;;;;-144.24;100.00;109431.22;5003906;28;45315;-68
2023/12/31 01:13:21;;;;;;;;;4.67;4.67;;;;;-144.24;100.00;109561.47;5037206;28;65238;-68
2023/12/31 01:15:46;;;;;;;;;4.33;4.33;;;;;-144.24;100.00;109486.16;5036913;28;69735;-69
2023/12/31 01:18:12;;;;;;;;;4.33;3.67;;;;;-144.24;100.00;109445.47;5036876;28;69841;-68
2023/12/31 01:20:37;;;;;;;;;5.00;3.67;;;;;-144.24;100.00;109616.41;5031840;28;62683;-69
2023/12/31 01:23:03;;;;;;;;;3.00;3.00;;;;;-144.24;100.00;109583.84;5019559;28;62212;-68
2023/12/31 01:25:28;;;;;;;;;4.00;3.00;;;;;-144.24;100.00;109785.31;5037690;28;47503;-69
2023/12/31 01:27:55;;;;;;;;;6.00;4.00;;;;;-144.24;100.00;109677.44;5036819;28;72623;-67
2023/12/31 01:30:22;;;;;;;;;4.33;4.33;;;;;-144.24;100.00;109746.66;5038378;28;45533;-68
2023/12/31 01:32:48;;;;;;;;;3.00;3.00;;;;;-144.24;100.00;109830.09;5019954;28;45566;-69
2023/12/31 01:35:13;;;;;;;;;8.33;4.67;;;;;-144.24;100.00;109826.00;5037828;28;46968;-68
2023/12/31 01:37:38;;;;;;;;;5.67;4.00;;;;;-144.24;100.00;110186.22;5037533;28;45445;-67
2023/12/31 01:40:04;;;;;;;;;4.67;3.00;;;;;-144.24;100.00;110082.44;5038054;28;45295;-68
2023/12/31 01:42:30;;;;;;;;;5.00;5.00;;;;;-144.24;100.00;110127.22;5037296;28;45380;-68
2023/12/31 01:44:55;;;;;;;;;8.33;4.00;;;;;-144.24;100.00;110129.25;5029937;28;70828;-69
2023/12/31 01:47:21;;;;;;;;;8.33;6.00;;;;;-144.24;100.00;110106.84;5037556;28;45457;-69
2023/12/31 01:49:47;;;;;;;;;4.00;4.00;;;;;-144.24;100.00;110192.34;5019981;28;45475;-68
2023/12/31 01:52:12;;;;;;;;;4.00;4.00;;;;;-144.24;100.00;110243.22;5037440;28;45553;-68
2023/12/31 01:54:38;;;;;;;;;4.00;4.00;;;;;-144.24;100.00;110373.47;5036153;28;69631;-68
2023/12/31 01:57:04;;;;;;;;;5.33;5.00;;;;;-144.24;100.00;110318.53;5036928;28;45529;-68
2023/12/31 01:59:29;;;;;;;;;4.00;4.00;;;;;-144.24;100.00;110410.13;5037545;28;45239;-68
2023/12/31 02:01:55;;;;;;;;;5.33;5.33;;;;;-144.24;100.00;110442.69;5036475;28;64790;-68
2023/12/31 02:04:20;;;;;;;;;5.00;4.00;;;;;-144.24;100.00;110479.31;5037477;28;46458;-69
2023/12/31 02:06:46;;;;;;;;;6.00;4.67;;;;;-144.24;100.00;110369.41;5037158;28;45299;-68
2023/12/31 02:09:11;;;;;;;;;5.33;4.00;;;;;-144.24;100.00;110432.50;5036887;28;65795;-68
2023/12/31 02:11:37;;;;;;;;;5.67;4.00;;;;;-144.24;100.00;110528.16;5036222;28;65913;-68
2023/12/31 02:14:03;;;;;;;;;4.33;4.33;;;;;-144.24;100.00;110613.66;5037260;28;47215;-68
2023/12/31 02:16:28;;;;;;;;;6.33;4.67;;;;;-144.24;100.00;110601.44;5036875;28;45308;-68
2023/12/31 02:18:53;;;;;;;;;3.00;3.00;;;;;-144.24;100.00;110648.25;5036462;28;61780;-68
2023/12/31 02:21:19;;;;;;;;;6.00;4.00;;;;;-144.24;100.00;110802.97;5036338;28;65507;-67
2023/12/31 02:23:45;;;;;;;;;6.67;5.33;;;;;-144.24;100.00;110772.44;5034263;28;59237;-68
2023/12/31 02:26:11;;;;;;;;;9.67;5.67;;;;;-144.24;100.00;110768.34;5036089;28;68499;-67
2023/12/31 02:28:37;;;;;;;;;5.33;4.33;;;;;-144.24;100.00;110735.78;5037095;28;45368;-67
2023/12/31 02:31:06;;;;;;;;;5.00;3.00;;;;;-144.24;100.00;110908.81;5036477;28;45578;-67
2023/12/31 02:33:32;;;;;;;;;4.00;4.00;;;;;-144.24;100.00;110878.28;5037015;28;46460;-68
2023/12/31 02:35:57;;;;;;;;;4.00;4.00;;;;;-144.24;100.00;110916.97;5036526;28;45712;-68
2023/12/31 02:38:22;;;;;;;;;4.33;4.33;;;;;-144.24;100.00;110929.16;5036407;28;65043;-68
2023/12/31 02:40:48;;;;;;;;;3.33;3.33;;;;;-144.24;100.00;111073.69;5036654;28;45203;-67
2023/12/31 02:43:13;;;;;;;;;5.00;5.00;;;;;-144.24;100.00;111057.41;5194087;22;46581;-67
2023/12/31 02:45:39;;;;;;;;;6.00;3.67;;;;;-144.24;100.00;111063.53;5097049;27;45364;-68
2023/12/31 02:48:05;;;;;;;;;5.00;4.00;;;;;-144.24;100.00;111061.50;5096887;27;66418;-68
2023/12/31 02:50:31;;;;;;;;;4.67;4.00;;;;;-144.24;100.00;111177.53;5097037;27;45296;-68
2023/12/31 02:52:56;;;;;;;;;2.67;2.67;;;;;-144.24;100.00;111212.13;5097298;27;46552;-67
2023/12/31 02:55:22;;;;;;;;;4.33;3.00;;;;;-144.24;100.00;111195.84;5097005;27;45499;-67
2023/12/31 02:57:47;;;;;;;;;4.00;3.00;;;;;-144.24;100.00;111258.97;5097384;27;45331;-67
2023/12/31 03:00:13;;;;;;;;;3.00;3.00;;;;;-144.24;100.00;111287.47;5097270;27;45468;-68
2023/12/31 03:02:40;;;;;;;;;4.00;4.00;;;;;-144.24;100.00;111470.69;5097245;27;45446;-67
2023/12/31 03:05:07;;;;;;;;;2.67;2.67;;;;;-144.24;100.00;111700.75;5096878;27;45233;-68
2023/12/31 03:07:33;;;;;;;;;3.00;3.00;;;;;-144.24;100.00;111765.91;5097710;27;45502;-67
2023/12/31 03:09:58;;;;;;;;;2.00;2.00;;;;;-144.24;100.00;111963.41;5097319;27;45389;-68
2023/12/31 03:12:24;;;;;;;;;4.00;3.00;;;;;-144.24;100.00;112099.81;5095832;27;47125;-67
2023/12/31 03:14:49;;;;;;;;;3.33;3.33;;;;;-144.24;100.00;112103.91;5095434;27;71201;-68
2023/12/31 03:17:14;;;;;;;;;4.33;3.00;;;;;-144.24;100.00;112301.41;5096181;27;67251;-68
2023/12/31 03:19:40;;;;;;;;;2.67;2.67;;;;;-144.24;100.00;112254.56;5078624;27;45444;-67
2023/12/31 03:22:05;;;;;;;;;3.67;3.00;;;;;-144.24;100.00;112211.81;5095212;27;48791;-67
2023/12/31 03:24:30;;;;;;;;;3.00;3.00;;;;;-144.24;100.00;112065.22;5093478;27;70955;-67
2023/12/31 03:26:56;;;;;;;;;3.00;3.00;;;;;-144.24;100.00;111853.44;5095934;27;63282;-68
2023/12/31 03:29:21;;;;;;;;;4.00;3.00;;;;;-144.24;100.00;111847.34;5096990;27;45502;-68
2023/12/31 03:31:47;;;;;;;;;3.00;3.00;;;;;-144.24;100.00;111751.66;5096389;27;46468;-68
2023/12/31 03:34:12;;;;;;;;;3.00;3.00;;;;;-144.24;100.00;111653.91;5096724;27;45418;-67
2023/12/31 03:36:37;;;;;;;;;4.00;3.00;;;;;-144.24;100.00;111529.72;5096996;27;45399;-68
2023/12/31 03:39:03;;;;;;;;;3.00;2.00;;;;;-144.24;100.00;111619.31;5095872;27;66659;-67
2023/12/31 03:41:28;;;;;;;;;4.00;3.00;;;;;-144.24;100.00;111629.50;5095350;27;69434;-68
2023/12/31 03:43:54;;;;;;;;;4.00;4.00;;;;;-144.24;100.00;111678.34;5095935;27;45462;-67
2023/12/31 03:46:20;;;;;;;;;3.00;2.00;;;;;-144.24;100.00;111847.34;5091991;27;61560;-68
2023/12/31 03:48:45;;;;;;;;;4.00;3.00;;;;;-144.24;100.00;111759.78;5096651;27;45321;-68
2023/12/31 03:51:11;;;;;;;;;3.00;3.00;;;;;-144.24;100.00;111658.00;5096146;27;45828;-67
2023/12/31 03:53:36;;;;;;;;;2.00;2.00;;;;;-144.24;100.00;111741.47;5095755;27;64095;-67
2023/12/31 03:56:02;;;;;;;;;3.00;3.00;;;;;-144.24;100.00;111645.78;5095750;27;62097;-67
2023/12/31 03:58:27;;;;;;;;;4.00;3.00;;;;;-144.24;100.00;111568.41;5096320;27;46440;-68
2023/12/31 04:00:52;;;;;;;;;2.00;2.00;;;;;-144.24;100.00;111236.56;5099107;27;52335;-68
2023/12/31 04:03:18;;;;;;;;;3.00;3.00;;;;;-144.24;100.00;110941.38;5095346;27;56456;-67
2023/12/31 04:05:43;;;;;;;;;5.00;4.00;;;;;-144.24;100.00;110823.31;5096650;27;45247;-67
2023/12/31 04:08:08;;;;;;;;;3.00;3.00;;;;;-144.24;100.00;110546.50;5095168;27;65171;-67
2023/12/31 04:10:33;;;;;;;;;2.00;2.00;;;;;-144.24;100.00;110497.66;5095590;27;72320;-67
2023/12/31 04:12:59;;;;;;;;;3.67;3.67;;;;;-144.24;100.00;110202.53;5094866;27;69495;-68
2023/12/31 04:15:24;;;;;;;;;2.00;2.00;;;;;-144.24;100.00;110013.25;5095818;27;63181;-67
2023/12/31 04:17:51;;;;;;;;;2.67;1.67;;;;;-144.24;100.00;109764.97;5096249;27;45474;-66
2023/12/31 04:20:17;;;;;;;;;2.00;2.00;;;;;-144.24;100.00;109653.03;5096539;27;45720;-67
2023/12/31 04:22:42;;;;;;;;;2.00;2.00;;;;;-144.24;100.00;109262.34;5095282;27;69312;-68
2023/12/31 04:25:08;;;;;;;;;4.00;1.67;;;;;-144.24;100.00;109012.06;5099372;27;45399;-68
2023/12/31 04:27:38;;;;;;;;;0.00;0.00;;;;;-144.24;100.00;108833.03;5099980;27;45450;-68
2023/12/31 04:30:04;;;;;;;;;2.00;2.00;;;;;-144.24;100.00;108910.34;5099614;27;48169;-67
2023/12/31 04:32:29;;;;;;;;;2.00;2.00;;;;;-144.24;100.00;108890.00;5099385;27;45585;-67
2023/12/31 04:34:54;;;;;;;;;1.00;1.00;;;;;-144.24;100.00;108743.50;5099558;27;45465;-68
2023/12/31 04:37:20;;;;;;;;;0.33;0.00;;;;;-144.24;100.00;108755.72;5099600;27;45486;-68
2023/12/31 04:39:45;;;;;;;;;1.00;1.00;;;;;-144.24;100.00;108920.50;5099546;27;46369;-67
2023/12/31 04:42:10;;;;;;;;;0.00;0.00;;;;;-144.24;100.00;109117.88;5098779;27;64895;-67
2023/12/31 04:44:36;;;;;;;;;0.00;0.00;;;;;-144.24;100.00;109276.59;5097646;27;65447;-67
2023/12/31 04:47:01;;;;;;;;;0.00;0.00;;;;;-144.24;100.00;109598.09;5098378;27;64310;-68
2023/12/31 04:49:26;;;;;;;;;2.00;0.00;;;;;-144.24;100.00;109876.88;5098025;27;75288;-68
2023/12/31 04:51:52;;;;;;;;;1.67;1.00;;;;;-144.24;100.00;110257.47;5098408;27;68332;-68
2023/12/31 04:54:17;;;;;;;;;0.00;0.00;;;;;-144.24;100.00;110562.78;5099099;27;45694;-67
2023/12/31 04:56:42;;;;;;;;;0.00;0.00;;;;;-144.24;100.00;110737.81;5098163;27;61380;-68
2023/12/31 04:59:07;;;;;;;;;1.33;0.00;;;;;-144.24;100.00;111037.06;5098339;27;68830;-67
2023/12/31 05:01:33;;;;;;;;;0.00;0.00;;;;;-144.24;100.00;111283.38;5097834;27;71251;-68
2023/12/31 05:03:59;;;;;;;;;0.00;0.00;;;;;-144.24;100.00;111546.00;5099439;27;45266;-67
2023/12/31 05:06:24;;;;;;;;;0.00;0.00;;;;;-144.24;100.00;111792.38;5080572;27;45546;-67
2023/12/31 05:08:50;;;;;;;;;0.00;0.00;;;;;-144.24;100.00;111938.97;5099159;27;47632;-67
2023/12/31 05:11:15;;;;;;;;;4.00;0.00;;;;;-144.24;100.00;112118.16;5098566;27;45324;-67
2023/12/31 05:13:41;;;;;;;;;0.67;0.00;;;;;-144.24;100.00;112372.69;5099377;27;45324;-67
2023/12/31 05:16:09;;;;;;;;;0.00;0.00;;;;;-144.24;100.00;112234.22;5099253;27;45500;-67
2023/12/31 05:18:34;;;;;;;;;0.33;0.00;;;;;-144.24;100.00;112423.59;5098739;27;47390;-67
2023/12/31 05:21:01;;;;;;;;;0.00;0.00;;;;;-144.24;100.00;112500.97;5098816;27;45394;-67
2023/12/31 05:23:27;;;;;;;;;0.00;0.00;;;;;-144.24;100.00;112578.34;5099237;27;45306;-67
2023/12/31 05:25:52;;;;;;;;;1.00;0.00;;;;;-144.24;100.00;112590.56;5098650;27;45464;-68
2023/12/31 05:28:18;;;;;;;;;1.00;0.00;;;;;-144.24;100.00;112623.16;5098308;27;57915;-68
2023/12/31 05:30:43;;;;;;;;;0.00;0.00;;;;;-144.24;100.00;112702.59;5098269;27;45351;-68
2023/12/31 05:33:11;;;;;;;;;0.00;0.00;;;;;-144.24;100.00;112859.41;5098711;27;45423;-68
2023/12/31 05:35:37;;;;;;;;;0.00;0.00;;;;;-144.24;100.00;112981.59;5097174;27;50161;-67
2023/12/31 05:38:02;;;;;;;;;0.00;0.00;;;;;-144.24;100.00;113285.06;5098255;27;46775;-67
2023/12/31 05:40:27;;;;;;;;;0.00;0.00;;;;;-144.24;100.00;113527.47;5098724;27;45332;-68
2023/12/31 05:42:53;;;;;;;;;0.00;0.00;;;;;-144.24;100.00;113663.94;5097953;27;45507;-68
2023/12/31 05:45:19;;;;;;;;;1.33;0.00;;;;;-144.24;100.00;113975.59;5079749;27;45542;-68
2023/12/31 05:47:46;;;;;;;;;0.67;0.00;;;;;-144.24;100.00;114118.22;5098483;27;46374;-67
2023/12/31 05:50:11;;;;;;;;;0.00;0.00;;;;;-144.24;100.00;114370.81;5098322;27;45436;-67
2023/12/31 05:52:37;;;;;;;;;0.33;0.00;;;;;-144.24;100.00;114546.03;5098245;27;45850;-67
2023/12/31 05:55:02;;;;;;;;;0.00;0.00;;;;;-144.24;100.00;114641.81;5098311;27;45546;-67
2023/12/31 05:57:28;;;;;;;;;1.00;0.00;;;;;-144.24;100.00;114772.19;5098074;27;46373;-68
2023/12/31 05:59:53;;;;;;;;;0.00;0.00;;;;;-144.24;100.00;114806.84;5097959;27;45349;-67
2023/12/31 06:02:18;;;;;;;;;0.00;0.00;;;;;-144.24;100.00;114865.94;5097197;27;62096;-68
2023/12/31 06:04:44;;;;;;;;;0.33;0.00;;;;;-144.24;100.00;114865.94;5097884;27;48342;-68
2023/12/31 06:07:09;;;;;;;;;0.00;0.00;;;;;-144.24;100.00;114865.94;5097012;27;72425;-68
2023/12/31 06:09:34;;;;;;;;;0.00;0.00;;;;;-144.24;100.00;114865.94;5098313;27;46876;-67
2023/12/31 06:12:00;;;;;;;;;0.00;0.00;;;;;-144.24;100.00;114865.94;5097488;27;63184;-67
2023/12/31 06:14:25;;;;;;;;;1.33;0.00;;;;;-144.24;100.00;114865.94;5098654;27;45220;-67
2023/12/31 06:16:50;;;;;;;;;0.00;0.00;;;;;-144.24;100.00;114865.94;5097226;27;55240;-67
2023/12/31 06:19:16;;;;;;;;;0.67;0.00;;;;;-144.24;100.00;114865.94;5098272;27;45919;-67
2023/12/31 06:21:41;;;;;;;;;0.00;0.00;;;;;-144.24;100.00;114865.94;5096701;27;69326;-67
2023/12/31 06:24:07;;;;;;;;;0.00;0.00;;;;;-144.24;100.00;114865.94;5098168;27;45534;-67
2023/12/31 06:26:32;;;;;;;;;0.00;0.00;;;;;-144.24;100.00;114865.94;5079133;27;45476;-67
2023/12/31 06:28:57;;;;;;;;;0.00;0.00;;;;;-144.24;100.00;114865.94;5096992;27;68345;-67
2023/12/31 06:31:22;;;;;;;;;1.00;0.00;;;;;-144.24;100.00;114865.94;5097054;27;67385;-67
2023/12/31 06:33:48;;;;;;;;;1.00;0.00;;;;;-144.24;100.00;114865.94;5097513;27;45316;-68
2023/12/31 06:36:13;;;;;;;;;0.00;0.00;;;;;-144.24;100.00;114865.94;5097783;27;46526;-67
2023/12/31 06:38:40;;;;;;;;;0.00;0.00;;;;;-144.24;100.00;114865.94;5097732;27;45399;-68
2023/12/31 06:41:07;;;;;;;;;0.00;0.00;;;;;-144.24;100.00;114865.94;5098196;27;45620;-68
2023/12/31 06:43:33;;;;;;;;;0.33;0.00;;;;;-144.24;100.00;114865.94;5097270;27;45405;-67
2023/12/31 06:45:58;;;;;;;;;0.00;0.00;;;;;-144.24;100.00;114865.94;5096901;27;46623;-68
2023/12/31 06:48:24;;;;;;;;;0.00;0.00;;;;;-144.24;100.00;114865.94;5097153;27;49452;-67
2023/12/31 06:50:49;;;;;;;;;0.00;0.00;;;;;-144.24;100.00;114865.94;5096499;27;65975;-68
2023/12/31 06:53:15;;;;;;;;;0.00;0.00;;;;;-144.24;100.00;114865.94;5097250;27;45527;-67
2023/12/31 06:55:40;;;;;;;;;0.67;0.00;;;;;-144.24;100.00;114865.94;5097098;27;46488;-68
2023/12/31 06:58:05;;;;;;;;;1.00;0.00;;;;;-144.24;100.00;114865.94;5096080;27;69788;-67
2023/12/31 07:00:31;;;;;;;;;0.00;0.00;;;;;-144.24;100.00;114865.94;5096546;27;64599;-68
2023/12/31 07:02:56;;;;;;;;;1.00;0.00;;;;;-144.24;100.00;114865.94;5096112;27;45426;-68
2023/12/31 07:05:21;;;;;;;;;0.00;0.00;;;;;-144.24;100.00;114865.94;5097142;27;45700;-68
2023/12/31 07:07:47;;;;;;;;;0.00;0.00;;;;;-144.24;100.00;114865.94;5096339;27;69568;-67
2023/12/31 07:10:12;;;;;;;;;0.33;0.00;;;;;-144.24;100.00;114865.94;5097431;27;45781;-68
2023/12/31 07:12:37;;;;;;;;;0.00;0.00;;;;;-144.24;100.00;114865.94;5097391;27;45316;-67
2023/12/31 07:15:03;;;;;;;;;1.00;0.00;;;;;-144.24;100.00;114865.94;5097097;27;46382;-68
2023/12/31 07:17:29;;;;;;;;;1.00;0.00;;;;;-144.24;100.00;114865.94;5097134;27;45335;-68
2023/12/31 07:19:54;;;;;;;;;1.00;0.00;;;;;-144.24;100.00;114865.94;5096077;27;67360;-67
2023/12/31 07:22:19;;;;;;;;;0.00;0.00;;;;;-144.24;100.00;114865.94;5096652;27;65910;-67
2023/12/31 07:24:45;;;;;;;;;0.00;0.00;;;;;-144.24;100.00;114865.94;5095400;27;72662;-68
2023/12/31 07:27:10;;;;;;;;;1.00;0.00;;;;;-144.24;100.00;114865.94;5096439;27;63846;-67
2023/12/31 07:29:35;;;;;;;;;0.00;0.00;;;;;-144.24;100.00;114865.94;5095914;27;59373;-66
2023/12/31 07:32:00;;;;;;;;;0.00;0.00;;;;;-144.24;100.00;114865.94;5096901;27;45588;-67
2023/12/31 07:34:26;;;;;;;;;3.00;0.00;;;;;-144.24;100.00;114865.94;5095109;27;72790;-67
2023/12/31 07:36:51;;;;;;;;;0.00;0.00;;;;;-144.24;100.00;114865.94;5090726;27;65696;-67
2023/12/31 07:39:16;;;;;;;;;3.33;0.67;;;;;-144.24;100.00;114865.94;5095541;27;45638;-67
2023/12/31 07:41:45;;;;;;;;;0.00;0.00;;;;;-144.24;100.00;114865.94;5096065;27;64666;-68
2023/12/31 07:44:11;;;;;;;;;0.00;0.00;;;;;-144.24;100.00;114865.94;5095142;27;46709;-67
2023/12/31 07:46:37;;;;;;;;;0.00;0.00;;;;;-144.24;100.00;114865.94;5092026;27;45539;-67
2023/12/31 07:49:03;;;;;;;;;0.00;0.00;;;;;-144.24;100.00;114865.94;5082558;27;46402;-67
2023/12/31 07:51:29;;;;;;;;;0.00;0.00;;;;;-144.24;100.00;114865.94;5091954;27;45580;-67
2023/12/31 07:53:54;;;;;;;;;0.00;0.00;;;;;-144.24;100.00;114865.94;5086355;27;46013;-67
2023/12/31 07:56:20;;;;;;;;;0.00;0.00;;;;;-144.24;100.00;114865.94;5092179;27;45556;-67
2023/12/31 07:58:45;;;;;;;;;2.00;0.00;;;;;-144.24;100.00;114865.94;5092289;27;45520;-76
2023/12/31 08:01:10;;;;;;;;;2.00;0.00;;;;;-144.24;100.00;114865.94;5096156;27;45709;-73
2023/12/31 08:03:36;;;;;;;;;1.00;0.00;;;;;-144.24;100.00;114865.94;5095101;27;69995;-73
2023/12/31 08:06:03;;;;;;;;;1.00;0.00;;;;;-144.24;100.00;114865.94;5095964;27;46262;-73
2023/12/31 08:08:29;;;;;;;;;0.00;0.00;;;;;-144.24;100.00;114865.94;5060937;27;45499;-72
2023/12/31 08:10:55;;;;;;;;;1.33;0.00;;;;;-144.24;100.00;114865.94;5096046;27;45537;-72
2023/12/31 08:13:21;;;;;;;;;0.00;0.00;;;;;-144.24;100.00;114865.94;5095200;27;67898;-75
2023/12/31 08:15:46;;;;;;;;;1.00;0.00;;;;;-144.24;100.00;114865.94;5103174;27;45877;-71
2023/12/31 08:18:12;;;;;;;;;1.00;0.00;;;;;-144.24;100.00;114865.94;5095750;27;45435;-72
2023/12/31 08:20:37;;;;;;;;;0.33;0.00;;;;;-144.24;100.00;114865.94;5094695;27;45669;-72
2023/12/31 08:23:03;;;;;;;;;0.00;0.00;;;;;-144.24;100.00;114865.94;5076814;27;46083;-72
2023/12/31 08:25:28;;;;;;;;;0.67;0.00;;;;;-144.24;100.00;114865.94;5095355;27;45756;-72
2023/12/31 08:27:54;;;;;;;;;0.67;0.67;;;;;-144.24;100.00;114865.94;5094948;27;45696;-71
2023/12/31 08:30:19;;;;;;;;;1.00;0.00;;;;;-144.24;100.00;114865.94;5074866;27;62619;-72
2023/12/31 08:32:45;;;;;;;;;0.00;0.00;;;;;-144.24;100.00;114865.94;5093100;27;45614;-72
2023/12/31 08:35:10;;;;;;;;;0.00;0.00;;;;;-144.24;100.00;114865.94;5099623;27;70116;-71
2023/12/31 08:37:36;;;;;;;;;0.00;0.00;;;;;-144.24;100.00;114865.94;5097497;27;46107;-72
2023/12/31 08:40:01;;;;;;;;;0.67;0.00;;;;;-144.24;100.00;114865.94;5097262;27;45737;-71
2023/12/31 08:42:27;;;;;;;;;2.33;0.00;;;;;-144.24;100.00;114865.94;5072744;27;46459;-72
2023/12/31 08:44:52;;;;;;;;;2.67;0.00;;;;;-144.24;100.00;114865.94;5093730;27;66165;-72
2023/12/31 08:47:17;;;;;;;;;1.33;0.00;;;;;-144.24;100.00;114865.94;5095905;27;50522;-71
2023/12/31 08:49:43;;;;;;;;;0.00;0.00;;;;;-144.24;100.00;114865.94;5091589;27;59099;-72
2023/12/31 08:52:08;;;;;;;;;0.67;0.00;;;;;-144.24;100.00;114865.94;5094905;27;65494;-71
2023/12/31 08:54:33;;;;;;;;;0.67;0.00;;;;;-144.24;100.00;114865.94;5095719;27;48266;-71
2023/12/31 08:56:59;;;;;;;;;4.67;0.00;;;;;-144.24;100.00;114865.94;5094373;27;63291;-71
2023/12/31 08:59:24;;;;;;;;;0.00;0.00;;;;;-144.24;100.00;114865.94;5095308;27;45621;-71
2023/12/31 09:01:50;;;;;;;;;1.33;0.00;;;;;-144.24;100.00;114865.94;5096445;27;45561;-70
2023/12/31 09:04:15;;;;;;;;;0.00;0.00;;;;;-144.24;100.00;114865.94;5092769;27;65436;-71
2023/12/31 09:06:40;;;;;;;;;0.00;0.00;;;;;-144.24;100.00;114865.94;5095930;27;45889;-70
2023/12/31 09:09:06;;;;;;;;;2.00;0.00;;;;;-144.24;100.00;114865.94;5097771;27;63874;-70
2023/12/31 09:11:32;;;;;;;;;1.33;0.00;;;;;-144.24;100.00;114865.94;5094408;27;47816;-70
2023/12/31 09:13:59;;;;;;;;;1.67;0.00;;;;;-144.24;100.00;114865.94;5076643;27;45391;-69
2023/12/31 09:16:24;;;;;;;;;3.00;0.00;;;;;-144.24;100.00;114865.94;5094915;27;45569;-70
2023/12/31 09:18:50;;;;;;;;;0.00;0.00;;;;;-144.24;100.00;114865.94;5076563;27;45498;-69
2023/12/31 09:21:15;;;;;;;;;0.00;0.00;;;;;-144.24;100.00;114865.94;5093382;27;61068;-70
2023/12/31 09:23:40;;;;;;;;;0.67;0.00;;;;;-144.24;100.00;114865.94;5095860;27;45407;-69
2023/12/31 09:26:06;;;;;;;;;2.67;0.00;;;;;-144.24;100.00;114865.94;5095117;27;62619;-68
2023/12/31 09:28:31;;;;;;;;;6.33;0.00;;;;;-144.24;100.00;114865.94;5094132;27;45670;-68
2023/12/31 09:30:56;;;;;;;;;3.33;0.00;;;;;-144.24;100.00;114865.94;5078068;27;70160;-68
2023/12/31 09:33:22;;;;;;;;;1.00;0.00;;;;;-144.24;100.00;114865.94;5077062;27;46267;-68
2023/12/31 09:35:47;;;;;;;;;2.33;0.00;;;;;-144.24;100.00;114865.94;5094025;27;63160;-69
2023/12/31 09:38:12;;;;;;;;;2.00;0.00;;;;;-144.24;100.00;114865.94;5092773;27;55005;-68
2023/12/31 09:40:38;;;;;;;;;1.33;0.33;;;;;-144.24;100.00;114865.94;5094002;27;47046;-71
2023/12/31 09:43:04;;;;;;;;;2.67;0.67;;;;;-144.24;100.00;114865.94;5092651;27;64541;-69
2023/12/31 09:45:30;;;;;;;;;2.00;0.67;;;;;-144.24;100.00;114865.94;5059257;27;47099;-68
2023/12/31 09:47:59;;;;;;;;;1.00;1.00;;;;;-144.24;100.00;114865.94;5074857;27;46197;-69
2023/12/31 09:50:25;;;;;;;;;2.00;0.00;;;;;-144.24;100.00;114865.94;5094046;27;46595;-69
2023/12/31 09:52:50;;;;;;;;;3.33;1.00;;;;;-144.24;100.00;114865.94;5094923;27;45607;-68
2023/12/31 09:55:18;;;;;;;;;0.33;0.33;;;;;-144.24;100.00;114865.94;5091862;27;45447;-68
2023/12/31 09:57:46;;;;;;;;;1.00;0.00;;;;;-144.24;100.00;114865.94;5094263;27;46836;-69
2023/12/31 10:00:12;;;;;;;;;2.00;1.00;;;;;-144.24;100.00;114865.94;5097920;27;46241;-70
2023/12/31 10:02:38;;;;;;;;;4.00;0.00;;;;;-144.24;100.00;114865.94;5094436;27;45686;-68
2023/12/31 10:05:05;;;;;;;;;4.00;1.00;;;;;-144.24;100.00;114865.94;5093348;27;54008;-69
2023/12/31 10:07:30;;;;;;;;;1.00;0.00;;;;;-144.24;100.00;114865.94;5094699;27;45532;-68
2023/12/31 10:09:56;;;;;;;;;1.67;0.00;;;;;-144.24;100.00;114865.94;5094927;27;48888;-69
2023/12/31 10:12:22;;;;;;;;;5.67;1.00;;;;;-144.24;100.00;114865.94;5074269;27;45487;-68
2023/12/31 10:14:50;;;;;;;;;6.67;1.67;;;;;-144.24;100.00;114865.94;5075440;27;45527;-68
2023/12/31 10:17:16;;;;;;;;;4.33;1.67;;;;;-144.24;100.00;114865.94;5094098;27;45679;-68
2023/12/31 10:19:41;;;;;;;;;2.67;1.00;;;;;-144.24;100.00;114865.94;5074704;27;47397;-68
2023/12/31 10:22:08;;;;;;;;;4.00;1.00;;;;;-144.24;100.00;114865.94;5072399;27;45511;-68
2023/12/31 10:24:33;;;;;;;;;2.67;1.00;;;;;-144.24;100.00;114865.94;5090017;27;45494;-68
2023/12/31 10:27:04;;;;;;;;;5.00;0.67;;;;;-144.24;100.00;114865.94;5094688;27;45382;-69
2023/12/31 10:29:31;;;;;;;;;3.33;0.33;;;;;-144.24;100.00;114865.94;5076365;27;46561;-68
2023/12/31 10:31:56;;;;;;;;;1.00;1.00;;;;;-144.24;100.00;114865.94;5078470;27;45560;-67
2023/12/31 10:34:22;;;;;;;;;4.67;3.00;;;;;-144.24;100.00;114865.94;5091592;27;45474;-68
2023/12/31 10:36:47;;;;;;;;;6.33;2.00;;;;;-144.24;100.00;114865.94;5093781;27;45568;-68
2023/12/31 10:39:33;;;;;;;;;2.00;2.00;;;;;-144.24;100.00;114865.94;5093380;27;46413;-68
2023/12/31 10:42:03;;;;;;;;;1.00;0.00;;;;;-144.24;100.00;114865.94;5091056;27;45443;-68
2023/12/31 10:44:32;;;;;;;;;1.67;1.00;;;;;-144.24;100.00;114865.94;5092850;27;45582;-68
2023/12/31 10:47:01;;;;;;;;;2.33;1.00;;;;;-144.24;100.00;114865.94;5093446;27;45598;-68
2023/12/31 10:49:27;;;;;;;;;3.00;3.00;;;;;-144.24;100.00;114865.94;5098118;27;46497;-67
2023/12/31 10:51:53;;;;;;;;;5.00;1.00;;;;;-144.24;100.00;114865.94;5075497;27;45419;-68
2023/12/31 10:54:45;;;;;;;;;3.67;1.00;;;;;-144.24;100.00;114865.94;5086877;27;45654;-68